createdAt,value
2022-12-04T00:00:15.133Z,47.75
2022-12-04T00:02:42.342Z,49.05
2022-12-04T00:05:10.187Z,48.58
2022-12-04T00:07:37.541Z,47.38
2022-12-04T00:10:04.986Z,50.30
2022-12-04T00:12:32.965Z,49.28
2022-12-04T00:15:24.781Z,54.35
2022-12-04T00:17:48.177Z,49.17
2022-12-04T00:20:15.398Z,53.13
2022-12-04T00:22:42.562Z,49.08
2022-12-04T00:25:09.854Z,50.55
2022-12-04T00:27:37.082Z,49.38
2022-12-04T00:30:04.521Z,41.03
2022-12-04T00:32:31.753Z,45.97
2022-12-04T00:34:58.579Z,42.20
2022-12-04T00:37:25.825Z,38.42
2022-12-04T00:39:53.407Z,37.22
2022-12-04T00:42:20.872Z,40.38
2022-12-04T00:44:48.109Z,38.55
2022-12-04T00:47:15.281Z,42.90
2022-12-04T00:49:42.561Z,40.35
2022-12-04T00:52:09.839Z,40.63
2022-12-04T00:54:37.049Z,40.83
2022-12-04T00:57:04.290Z,41.35
2022-12-04T00:59:31.579Z,45.72
2022-12-04T01:01:58.787Z,38.10
2022-12-04T01:04:25.913Z,43.80
2022-12-04T01:06:53.162Z,38.70
2022-12-04T01:09:20.605Z,39.65
2022-12-04T01:11:47.413Z,38.95
2022-12-04T01:14:14.634Z,41.25
2022-12-04T01:16:42.045Z,44.42
2022-12-04T01:19:11.462Z,41.55
2022-12-04T01:21:39.861Z,46.17
2022-12-04T01:24:07.257Z,44.03
2022-12-04T01:26:34.509Z,44.10
2022-12-04T01:29:01.846Z,41.53
2022-12-04T01:31:29.084Z,45.17
2022-12-04T01:33:56.335Z,44.00
2022-12-04T01:36:25.571Z,43.72
2022-12-04T01:38:52.958Z,43.80
2022-12-04T01:41:25.546Z,39.50
2022-12-04T01:44:17.312Z,42.70
2022-12-04T01:46:47.657Z,43.55
2022-12-04T01:49:23.042Z,43.85
2022-12-04T01:51:54.636Z,41.75
2022-12-04T01:54:28.619Z,42.95
2022-12-04T01:57:01.795Z,49.53
2022-12-04T01:59:33.188Z,42.33
2022-12-04T02:02:05.614Z,44.33
2022-12-04T02:04:34.575Z,47.38
2022-12-04T02:07:01.466Z,47.13
2022-12-04T02:09:29.209Z,40.97
2022-12-04T02:12:17.610Z,46.92
2022-12-04T02:14:45.010Z,44.40
2022-12-04T02:17:20.143Z,46.42
2022-12-04T02:20:09.623Z,47.85
2022-12-04T02:23:02.282Z,41.13
2022-12-04T02:25:37.621Z,39.88
2022-12-04T02:28:14.956Z,46.45
2022-12-04T02:30:44.129Z,45.58
2022-12-04T02:33:16.667Z,44.90
2022-12-04T02:35:49.233Z,40.17
2022-12-04T02:38:38.801Z,42.83
2022-12-04T02:41:06.029Z,42.83
2022-12-04T02:43:39.196Z,41.00
2022-12-04T02:46:17.202Z,41.05
2022-12-04T02:48:47.142Z,35.20
2022-12-04T02:51:16.123Z,43.50
2022-12-04T02:53:56.054Z,36.42
2022-12-04T02:56:32.358Z,39.60
2022-12-04T02:59:12.662Z,38.58
2022-12-04T03:01:45.397Z,42.55
2022-12-04T03:04:22.235Z,40.75
2022-12-04T03:06:54.832Z,41.03
2022-12-04T03:09:39.659Z,41.00
2022-12-04T03:12:30.959Z,40.92
2022-12-04T03:15:02.864Z,38.22
2022-12-04T03:17:35.464Z,42.78
2022-12-04T03:20:08.580Z,41.65
2022-12-04T03:22:39.763Z,36.97
2022-12-04T03:25:08.774Z,43.95
2022-12-04T03:27:35.977Z,37.55
2022-12-04T03:30:09.054Z,40.67
2022-12-04T03:32:38.742Z,41.00
2022-12-04T03:35:05.959Z,40.28
2022-12-04T03:37:41.805Z,41.33
2022-12-04T03:40:30.450Z,36.78
2022-12-04T03:43:06.099Z,39.15
2022-12-04T03:45:44.672Z,39.55
2022-12-04T03:48:26.205Z,37.63
2022-12-04T03:50:58.090Z,37.53
2022-12-04T03:53:45.835Z,39.67
2022-12-04T03:56:20.356Z,36.53
2022-12-04T03:58:52.470Z,34.42
2022-12-04T04:01:23.000Z,35.75
2022-12-04T04:03:52.679Z,35.67
2022-12-04T04:06:25.052Z,34.67
2022-12-04T04:08:58.892Z,35.28
2022-12-04T04:11:34.964Z,38.05
2022-12-04T04:14:33.476Z,33.55
2022-12-04T04:17:23.582Z,38.17
2022-12-04T04:20:14.130Z,37.80
2022-12-04T04:23:00.472Z,34.05
2022-12-04T04:25:29.033Z,33.70
2022-12-04T04:27:57.856Z,34.63
2022-12-04T04:30:26.337Z,36.47
2022-12-04T04:33:03.696Z,31.92
2022-12-04T04:36:00.006Z,36.40
2022-12-04T04:38:41.899Z,36.47
2022-12-04T04:41:09.025Z,36.03
2022-12-04T04:43:44.022Z,31.48
2022-12-04T04:46:31.126Z,36.10
2022-12-04T04:49:01.955Z,34.97
2022-12-04T04:51:33.507Z,37.78
2022-12-04T04:54:04.387Z,37.63
2022-12-04T04:56:31.667Z,51.25
2022-12-04T04:58:58.824Z,38.72
2022-12-04T05:01:28.559Z,37.42
2022-12-04T05:03:55.716Z,37.42
2022-12-04T05:06:22.849Z,36.35
2022-12-04T05:08:49.597Z,98.07
2022-12-04T05:11:17.308Z,40.45
2022-12-04T05:13:44.452Z,39.15
2022-12-04T05:16:13.699Z,38.42
2022-12-04T05:18:41.268Z,41.35
2022-12-04T05:21:16.533Z,44.42
2022-12-04T05:23:43.796Z,40.10
2022-12-04T05:26:11.151Z,40.35
2022-12-04T05:28:39.511Z,37.97
2022-12-04T05:31:06.456Z,40.58
2022-12-04T05:33:33.663Z,38.83
2022-12-04T05:36:03.549Z,35.80
2022-12-04T05:38:30.945Z,40.05
2022-12-04T05:40:59.340Z,37.92
2022-12-04T05:43:26.595Z,36.05
2022-12-04T05:45:53.899Z,37.78
2022-12-04T05:48:20.983Z,42.83
2022-12-04T05:50:48.125Z,41.38
2022-12-04T05:53:15.346Z,37.00
2022-12-04T05:55:42.518Z,37.80
2022-12-04T05:58:09.282Z,37.03
2022-12-04T06:00:36.605Z,42.60
2022-12-04T06:03:03.631Z,40.75
2022-12-04T06:05:32.607Z,38.30
2022-12-04T06:07:59.813Z,38.78
2022-12-04T06:10:26.985Z,40.67
2022-12-04T06:12:57.611Z,39.13
2022-12-04T06:15:25.034Z,38.78
2022-12-04T06:17:52.240Z,37.38
2022-12-04T06:20:19.651Z,40.00
2022-12-04T06:22:47.035Z,42.10
2022-12-04T06:25:14.215Z,40.65
2022-12-04T06:27:42.594Z,39.78
2022-12-04T06:30:09.866Z,40.53
2022-12-04T06:32:37.029Z,42.50
2022-12-04T06:35:04.232Z,45.03
2022-12-04T06:37:31.601Z,45.30
2022-12-04T06:39:59.121Z,45.88
2022-12-04T06:42:26.583Z,41.30
2022-12-04T06:44:53.717Z,45.15
2022-12-04T06:47:20.575Z,49.45
2022-12-04T06:49:50.248Z,49.72
2022-12-04T06:52:17.533Z,46.03
2022-12-04T06:54:44.709Z,52.72
2022-12-04T06:57:11.931Z,49.30
2022-12-04T06:59:39.225Z,56.17
2022-12-04T07:02:06.573Z,54.20
2022-12-04T07:04:33.719Z,47.17
2022-12-04T07:07:00.912Z,48.75
2022-12-04T07:09:28.152Z,56.13
2022-12-04T07:11:55.482Z,48.53
2022-12-04T07:14:22.599Z,51.03
2022-12-04T07:16:49.944Z,51.20
2022-12-04T07:19:17.264Z,51.08
2022-12-04T07:21:44.551Z,50.50
2022-12-04T07:24:16.745Z,50.03
2022-12-04T07:26:43.959Z,50.17
2022-12-04T07:29:10.960Z,51.30
2022-12-04T07:31:38.410Z,51.90
2022-12-04T07:34:05.319Z,53.33
2022-12-04T07:36:32.691Z,58.60
2022-12-04T07:38:59.783Z,55.13
2022-12-04T07:41:27.211Z,53.13
2022-12-04T07:43:54.994Z,55.92
2022-12-04T07:46:25.059Z,55.33
2022-12-04T07:48:52.340Z,51.55
2022-12-04T07:51:22.240Z,55.53
2022-12-04T07:53:51.133Z,55.10
2022-12-04T07:56:18.558Z,54.95
2022-12-04T07:58:46.502Z,58.30
2022-12-04T08:01:22.280Z,59.35
2022-12-04T08:03:51.385Z,54.17
2022-12-04T08:06:20.274Z,55.15
2022-12-04T08:08:47.654Z,53.17
2022-12-04T08:11:17.629Z,53.78
2022-12-04T08:13:45.089Z,51.67
2022-12-04T08:16:12.906Z,50.42
2022-12-04T08:18:41.344Z,53.15
2022-12-04T08:21:10.671Z,49.88
2022-12-04T08:23:37.889Z,55.25
2022-12-04T08:26:05.457Z,58.20
2022-12-04T08:28:32.871Z,51.17
2022-12-04T08:31:07.809Z,56.50
2022-12-04T08:33:35.200Z,53.22
2022-12-04T08:36:05.643Z,49.53
2022-12-04T08:38:33.143Z,52.70
2022-12-04T08:41:05.381Z,54.63
2022-12-04T08:43:33.095Z,51.72
2022-12-04T08:46:02.526Z,52.78
2022-12-04T08:48:29.862Z,52.10
2022-12-04T08:50:57.194Z,46.03
2022-12-04T08:53:24.674Z,52.05
2022-12-04T08:55:52.818Z,54.83
2022-12-04T08:58:20.563Z,48.92
2022-12-04T09:00:48.412Z,56.38
2022-12-04T09:03:18.241Z,56.17
2022-12-04T09:05:46.112Z,52.35
2022-12-04T09:08:15.452Z,54.88
2022-12-04T09:10:42.976Z,52.22
2022-12-04T09:13:10.403Z,55.13
2022-12-04T09:15:40.860Z,55.10
2022-12-04T09:18:08.965Z,53.60
2022-12-04T09:20:36.229Z,51.42
2022-12-04T09:23:05.468Z,47.88
2022-12-04T09:25:36.538Z,53.90
2022-12-04T09:28:04.394Z,51.03
2022-12-04T09:30:31.675Z,50.67
2022-12-04T09:32:58.949Z,52.33
2022-12-04T09:35:25.740Z,50.65
2022-12-04T09:37:52.973Z,51.25
2022-12-04T09:40:37.740Z,49.83
2022-12-04T09:43:40.596Z,54.85
2022-12-04T09:46:16.995Z,68.30
2022-12-04T09:48:46.191Z,53.83
2022-12-04T09:51:18.907Z,54.10
2022-12-04T09:53:52.481Z,70.18
2022-12-04T09:56:20.780Z,69.25
2022-12-04T09:58:51.655Z,61.75
2022-12-04T10:01:21.201Z,62.97
2022-12-04T10:03:48.891Z,55.95
2022-12-04T10:06:22.384Z,54.08
2022-12-04T10:09:12.379Z,52.45
2022-12-04T10:12:30.233Z,53.80
2022-12-04T10:15:06.839Z,50.03
2022-12-04T10:18:03.034Z,53.10
2022-12-04T10:20:30.300Z,49.60
2022-12-04T10:23:14.372Z,76.80
2022-12-04T10:25:41.786Z,53.53
2022-12-04T10:28:41.240Z,52.60
2022-12-04T10:31:13.448Z,51.58
2022-12-04T10:33:40.762Z,64.43
2022-12-04T10:36:16.018Z,53.63
2022-12-04T10:39:21.937Z,48.67
2022-12-04T10:42:06.403Z,53.92
2022-12-04T10:44:33.562Z,50.92
2022-12-04T10:47:02.100Z,59.38
2022-12-04T10:49:31.919Z,56.55
2022-12-04T10:51:58.818Z,65.57
2022-12-04T10:54:33.577Z,50.97
2022-12-04T10:57:18.410Z,55.00
2022-12-04T10:59:54.923Z,51.92
2022-12-04T11:02:22.737Z,51.50
2022-12-04T11:05:44.977Z,68.47
2022-12-04T11:08:26.754Z,46.63
2022-12-04T11:11:06.299Z,81.85
2022-12-04T11:13:33.809Z,50.50
2022-12-04T11:16:01.148Z,53.70
2022-12-04T11:18:46.962Z,48.72
2022-12-04T11:21:25.974Z,50.08
2022-12-04T11:23:53.450Z,47.78
2022-12-04T11:26:33.805Z,49.00
2022-12-04T11:29:02.004Z,50.17
2022-12-04T11:31:30.087Z,48.13
2022-12-04T11:34:06.987Z,45.92
2022-12-04T11:36:42.672Z,50.45
2022-12-04T11:39:30.847Z,50.08
2022-12-04T11:42:14.101Z,51.25
2022-12-04T11:44:59.818Z,50.08
2022-12-04T11:47:32.625Z,44.50
2022-12-04T11:50:25.108Z,48.28
2022-12-04T11:53:09.316Z,52.28
2022-12-04T11:56:00.795Z,45.13
2022-12-04T11:58:55.030Z,48.35
2022-12-04T12:01:46.337Z,47.58
2022-12-04T12:04:18.977Z,49.25
2022-12-04T12:07:07.273Z,52.22
2022-12-04T12:09:43.713Z,48.78
2022-12-04T12:12:19.177Z,45.58
2022-12-04T12:15:14.294Z,48.58
2022-12-04T12:18:19.204Z,46.65
2022-12-04T12:21:41.523Z,45.85
2022-12-04T12:24:22.946Z,51.17
2022-12-04T12:27:01.722Z,46.92
2022-12-04T12:29:58.450Z,44.90
2022-12-04T12:32:25.820Z,45.75
2022-12-04T12:34:53.166Z,46.97
2022-12-04T12:37:45.597Z,50.67
2022-12-04T12:40:31.999Z,52.25
2022-12-04T12:43:22.084Z,44.70
2022-12-04T12:45:59.640Z,47.30
2022-12-04T12:48:27.325Z,46.85
2022-12-04T12:51:36.065Z,46.92
2022-12-04T12:54:21.050Z,45.95
2022-12-04T12:56:53.605Z,49.72
2022-12-04T12:59:25.312Z,48.15
2022-12-04T13:02:07.912Z,51.78
2022-12-04T13:04:41.796Z,50.30
2022-12-04T13:07:26.096Z,47.90
2022-12-04T13:10:16.065Z,49.65
2022-12-04T13:12:57.866Z,47.78
2022-12-04T13:15:32.619Z,47.10
2022-12-04T13:18:00.293Z,46.97
2022-12-04T13:20:33.756Z,48.05
2022-12-04T13:23:00.936Z,41.90
2022-12-04T13:25:53.237Z,47.03
2022-12-04T13:28:36.128Z,45.47
2022-12-04T13:31:37.860Z,45.80
2022-12-04T13:34:23.682Z,43.03
2022-12-04T13:37:11.895Z,46.72
2022-12-04T13:39:50.656Z,42.97
2022-12-04T13:42:28.906Z,41.38
2022-12-04T13:45:05.959Z,40.67
2022-12-04T13:47:35.673Z,43.80
2022-12-04T13:50:08.481Z,38.85
2022-12-04T13:52:42.314Z,41.95
2022-12-04T13:55:31.161Z,41.85
2022-12-04T13:58:22.646Z,43.50
2022-12-04T14:01:01.207Z,40.17
2022-12-04T14:03:59.432Z,43.83
2022-12-04T14:06:37.624Z,40.67
2022-12-04T14:09:19.316Z,43.13
2022-12-04T14:11:49.165Z,38.78
2022-12-04T14:14:28.130Z,41.10
2022-12-04T14:16:57.632Z,42.40
2022-12-04T14:19:36.859Z,36.92
2022-12-04T14:22:04.064Z,39.88
2022-12-04T14:24:31.801Z,39.70
2022-12-04T14:27:14.314Z,38.58
2022-12-04T14:29:49.479Z,38.03
2022-12-04T14:32:33.594Z,42.67
2022-12-04T14:35:01.290Z,38.28
2022-12-04T14:37:34.107Z,38.63
2022-12-04T14:40:04.156Z,42.33
2022-12-04T14:42:37.048Z,39.45
2022-12-04T14:45:25.606Z,42.10
2022-12-04T14:47:58.496Z,40.20
2022-12-04T14:50:37.407Z,37.67
2022-12-04T14:53:11.778Z,34.63
2022-12-04T14:56:06.063Z,37.10
2022-12-04T14:58:35.276Z,34.45
2022-12-04T15:01:18.447Z,37.55
2022-12-04T15:03:47.793Z,38.45
2022-12-04T15:06:26.598Z,36.60
2022-12-04T15:09:23.401Z,38.13
2022-12-04T15:12:13.998Z,34.70
2022-12-04T15:14:41.203Z,37.50
2022-12-04T15:17:11.040Z,37.13
2022-12-04T15:19:38.350Z,37.83
2022-12-04T15:22:11.669Z,40.58
2022-12-04T15:24:39.135Z,35.95
2022-12-04T15:27:07.085Z,39.47
2022-12-04T15:29:38.032Z,37.45
2022-12-04T15:32:11.112Z,40.33
2022-12-04T15:34:38.332Z,36.42
2022-12-04T15:37:09.135Z,40.67
2022-12-04T15:39:38.019Z,37.20
2022-12-04T15:42:24.678Z,37.33
2022-12-04T15:45:16.172Z,39.83
2022-12-04T15:47:45.945Z,40.78
2022-12-04T15:50:15.782Z,40.60
2022-12-04T15:53:20.106Z,40.22
2022-12-04T15:55:54.014Z,37.78
2022-12-04T15:58:37.940Z,36.42
2022-12-04T16:01:10.471Z,37.90
2022-12-04T16:03:43.245Z,40.88
2022-12-04T16:06:31.573Z,33.90
2022-12-04T16:09:00.883Z,38.50
2022-12-04T16:11:36.999Z,33.30
2022-12-04T16:14:12.636Z,37.45
2022-12-04T16:16:44.754Z,36.63
2022-12-04T16:19:27.046Z,36.22
2022-12-04T16:21:55.176Z,35.00
2022-12-04T16:24:22.621Z,38.60
2022-12-04T16:26:51.110Z,33.45
2022-12-04T16:29:18.358Z,34.58
2022-12-04T16:31:45.217Z,36.60
2022-12-04T16:34:13.011Z,34.40
2022-12-04T16:36:40.510Z,34.05
2022-12-04T16:39:07.770Z,36.10
2022-12-04T16:41:34.852Z,33.92
2022-12-04T16:44:02.351Z,37.15
2022-12-04T16:46:30.094Z,36.28
2022-12-04T16:48:57.151Z,30.75
2022-12-04T16:51:27.646Z,34.03
2022-12-04T16:53:55.201Z,35.42
2022-12-04T16:56:22.271Z,32.33
2022-12-04T16:58:49.716Z,36.67
2022-12-04T17:01:21.801Z,34.08
2022-12-04T17:03:49.330Z,32.67
2022-12-04T17:06:16.727Z,33.08
2022-12-04T17:08:43.858Z,36.95
2022-12-04T17:11:15.459Z,34.03
2022-12-04T17:13:42.635Z,30.77
2022-12-04T17:16:14.021Z,36.15
2022-12-04T17:18:42.100Z,33.90
2022-12-04T17:21:11.158Z,32.58
2022-12-04T17:23:38.313Z,33.55
2022-12-04T17:26:07.761Z,33.42
2022-12-04T17:28:36.336Z,30.67
2022-12-04T17:31:06.161Z,34.83
2022-12-04T17:33:33.637Z,29.73
2022-12-04T17:36:00.811Z,32.08
2022-12-04T17:38:28.299Z,33.50
2022-12-04T17:41:02.164Z,31.67
2022-12-04T17:43:30.498Z,29.95
2022-12-04T17:45:58.142Z,33.20
2022-12-04T17:48:25.490Z,33.40
2022-12-04T17:51:04.773Z,31.58
2022-12-04T17:53:32.054Z,30.02
2022-12-04T17:56:06.665Z,28.42
2022-12-04T17:58:34.307Z,27.35
2022-12-04T18:01:06.556Z,32.03
2022-12-04T18:03:34.120Z,25.98
2022-12-04T18:06:01.625Z,29.98
2022-12-04T18:08:30.459Z,27.92
2022-12-04T18:10:57.514Z,29.05
2022-12-04T18:13:25.749Z,28.17
2022-12-04T18:15:52.968Z,35.90
2022-12-04T18:18:20.120Z,41.67
2022-12-04T18:20:46.932Z,27.30
2022-12-04T18:23:14.140Z,26.55
2022-12-04T18:25:41.324Z,26.55
2022-12-04T18:28:08.127Z,25.02
2022-12-04T18:30:35.411Z,26.00
2022-12-04T18:33:02.621Z,29.10
2022-12-04T18:35:29.848Z,24.58
2022-12-04T18:37:57.084Z,27.05
2022-12-04T18:40:25.071Z,26.90
2022-12-04T18:42:51.960Z,25.77
2022-12-04T18:45:19.110Z,27.10
2022-12-04T18:47:47.122Z,28.25
2022-12-04T18:50:15.032Z,28.92
2022-12-04T18:52:42.268Z,28.52
2022-12-04T18:55:09.926Z,27.17
2022-12-04T18:57:37.215Z,34.80
2022-12-04T19:00:04.739Z,26.60
2022-12-04T19:02:32.012Z,34.60
2022-12-04T19:04:59.213Z,31.33
2022-12-04T19:07:26.409Z,33.50
2022-12-04T19:10:11.259Z,31.67
2022-12-04T19:12:38.874Z,29.50
2022-12-04T19:15:06.707Z,28.80
2022-12-04T19:17:34.235Z,30.27
2022-12-04T19:20:01.602Z,27.13
2022-12-04T19:22:29.875Z,33.08
2022-12-04T19:24:57.105Z,29.17
2022-12-04T19:27:24.336Z,29.77
2022-12-04T19:29:51.580Z,31.90
2022-12-04T19:32:19.192Z,31.40
2022-12-04T19:34:49.122Z,30.33
2022-12-04T19:37:17.104Z,31.08
2022-12-04T19:39:44.020Z,33.03
2022-12-04T19:42:11.147Z,29.67
2022-12-04T19:44:53.264Z,35.47
2022-12-04T19:47:20.126Z,31.25
2022-12-04T19:49:47.342Z,29.27
2022-12-04T19:52:14.554Z,32.58
2022-12-04T19:54:41.801Z,29.27
2022-12-04T19:57:09.067Z,31.60
2022-12-04T19:59:40.573Z,33.30
2022-12-04T20:02:11.770Z,29.42
2022-12-04T20:04:39.220Z,33.90
2022-12-04T20:07:06.489Z,29.60
2022-12-04T20:09:33.297Z,28.27
2022-12-04T20:12:00.505Z,31.48
2022-12-04T20:14:27.795Z,31.70
2022-12-04T20:16:55.046Z,30.08
2022-12-04T20:19:41.074Z,32.28
2022-12-04T20:22:28.178Z,33.65
2022-12-04T20:25:15.786Z,31.38
2022-12-04T20:28:03.389Z,30.63
2022-12-04T20:30:50.924Z,29.60
2022-12-04T20:33:38.477Z,29.23
2022-12-04T20:36:27.230Z,28.58
2022-12-04T20:39:15.509Z,29.65
2022-12-04T20:42:03.041Z,29.70
2022-12-04T20:44:50.606Z,25.50
2022-12-04T20:47:39.292Z,30.77
2022-12-04T20:50:26.741Z,31.13
2022-12-04T20:53:14.317Z,32.35
2022-12-04T20:56:01.810Z,27.60
2022-12-04T20:58:49.798Z,33.40
2022-12-04T21:01:37.750Z,29.27
2022-12-04T21:04:24.872Z,28.15
2022-12-04T21:07:12.404Z,28.92
2022-12-04T21:10:00.234Z,29.92
2022-12-04T21:13:06.765Z,30.45
2022-12-04T21:16:01.220Z,28.05
2022-12-04T21:18:49.139Z,27.27
2022-12-04T21:21:36.749Z,26.77
2022-12-04T21:24:28.706Z,28.25
2022-12-04T21:27:20.937Z,29.08
2022-12-04T21:30:09.706Z,26.40
2022-12-04T21:32:57.270Z,31.75
2022-12-04T21:35:44.345Z,29.35
2022-12-04T21:38:38.937Z,29.90
2022-12-04T21:41:45.335Z,53.58
2022-12-04T21:44:32.856Z,38.42
2022-12-04T21:47:19.999Z,29.25
2022-12-04T21:50:07.869Z,51.25
2022-12-04T21:52:55.412Z,27.70
2022-12-04T21:55:57.005Z,48.58
2022-12-04T21:58:44.596Z,25.88
2022-12-04T22:01:32.262Z,28.33
2022-12-04T22:04:19.457Z,28.88
2022-12-04T22:07:07.015Z,25.92
2022-12-04T22:09:54.686Z,25.85
2022-12-04T22:12:50.576Z,28.95
2022-12-04T22:15:39.520Z,26.75
2022-12-04T22:18:27.101Z,29.70
2022-12-04T22:21:16.151Z,30.35
2022-12-04T22:24:05.060Z,26.58
2022-12-04T22:26:52.633Z,29.88
2022-12-04T22:29:55.326Z,29.45
2022-12-04T22:32:43.324Z,30.05
2022-12-04T22:35:30.961Z,25.23
2022-12-04T22:38:18.604Z,30.73
2022-12-04T22:41:10.142Z,28.13
2022-12-04T22:43:57.789Z,25.27
2022-12-04T22:46:45.261Z,31.83
2022-12-04T22:49:33.038Z,30.60
2022-12-04T22:52:20.846Z,27.20
2022-12-04T22:55:08.234Z,28.20
2022-12-04T22:57:55.539Z,29.42
2022-12-04T23:00:43.215Z,28.70
2022-12-04T23:03:30.932Z,28.40
2022-12-04T23:06:19.824Z,29.42
2022-12-04T23:09:13.951Z,30.05
2022-12-04T23:12:01.795Z,27.38
2022-12-04T23:14:49.075Z,30.42
2022-12-04T23:17:36.652Z,26.08
2022-12-04T23:20:24.155Z,28.90
2022-12-04T23:23:11.672Z,26.00
2022-12-04T23:26:05.925Z,28.80
2022-12-04T23:28:53.268Z,26.95
2022-12-04T23:31:40.909Z,28.45
2022-12-04T23:34:28.033Z,28.83
2022-12-04T23:37:15.542Z,27.33
2022-12-04T23:40:03.022Z,28.65
2022-12-04T23:42:50.496Z,29.55
2022-12-04T23:45:40.473Z,27.83
2022-12-04T23:48:28.295Z,26.88
2022-12-04T23:51:18.003Z,29.55
2022-12-04T23:54:05.562Z,25.90
2022-12-04T23:56:53.083Z,25.52
2022-12-04T23:59:40.544Z,27.30
